createdAt,value
2022-11-07T00:02:03.989Z,95483.66
2022-11-07T00:05:07.610Z,95489.47
2022-11-07T00:08:10.876Z,95498.72
2022-11-07T00:11:12.863Z,95493.56
2022-11-07T00:14:16.398Z,95490.47
2022-11-07T00:17:18.298Z,95494.16
2022-11-07T00:20:20.330Z,95502.50
2022-11-07T00:23:23.659Z,95485.56
2022-11-07T00:26:25.589Z,95497.50
2022-11-07T00:29:27.532Z,95500.66
2022-11-07T00:32:29.459Z,95509.19
2022-11-07T00:35:31.442Z,95518.88
2022-11-07T00:38:35.037Z,95531.63
2022-11-07T00:41:37.174Z,95544.22
2022-11-07T00:44:39.133Z,95542.03
2022-11-07T00:47:41.213Z,95546.91
2022-11-07T00:50:43.322Z,95558.84
2022-11-07T00:53:46.909Z,95560.34
2022-11-07T00:56:48.872Z,95556.41
2022-11-07T00:59:50.859Z,95557.13
2022-11-07T01:02:52.936Z,95564.56
2022-11-07T01:05:56.468Z,95561.38
2022-11-07T01:08:59.934Z,95569.84
2022-11-07T01:12:01.874Z,95562.34
2022-11-07T01:15:04.540Z,95564.28
2022-11-07T01:18:06.596Z,95556.47
2022-11-07T01:21:15.145Z,95553.75
2022-11-07T01:24:19.749Z,95553.47
2022-11-07T01:27:21.649Z,95555.28
2022-11-07T01:30:23.611Z,95557.22
2022-11-07T01:33:25.904Z,95542.09
2022-11-07T01:36:28.348Z,95560.94
2022-11-07T01:39:31.693Z,95548.09
2022-11-07T01:42:33.782Z,95553.50
2022-11-07T01:45:35.953Z,95535.44
2022-11-07T01:48:39.553Z,95540.78
2022-11-07T01:51:48.404Z,95528.03
2022-11-07T01:54:58.987Z,95531.53
2022-11-07T01:58:03.308Z,95527.69
2022-11-07T02:01:05.566Z,95538.34
2022-11-07T02:04:08.356Z,95536.44
2022-11-07T02:07:16.838Z,95524.88
2022-11-07T02:10:21.023Z,95531.06
2022-11-07T02:13:26.066Z,95520.31
2022-11-07T02:16:28.580Z,95528.41
2022-11-07T02:19:35.605Z,95530.28
2022-11-07T02:22:42.918Z,95530.56
2022-11-07T02:25:46.435Z,95532.41
2022-11-07T02:28:49.404Z,95528.16
2022-11-07T02:32:00.981Z,95530.94
2022-11-07T02:35:06.208Z,95531.06
2022-11-07T02:38:12.395Z,95529.47
2022-11-07T02:41:18.301Z,95530.59
2022-11-07T02:44:21.549Z,95527.16
2022-11-07T02:47:23.508Z,95522.94
2022-11-07T02:50:26.029Z,95525.97
2022-11-07T02:53:27.948Z,95523.34
2022-11-07T02:56:31.260Z,95528.31
2022-11-07T02:59:33.570Z,95524.09
2022-11-07T03:02:35.566Z,95527.06
2022-11-07T03:05:37.687Z,95522.81
2022-11-07T03:08:39.886Z,95530.59
2022-11-07T03:11:43.190Z,95529.00
2022-11-07T03:14:45.294Z,95535.13
2022-11-07T03:17:47.265Z,95534.00
2022-11-07T03:20:49.285Z,95535.56
2022-11-07T03:23:51.185Z,95539.44
2022-11-07T03:26:54.592Z,95538.28
2022-11-07T03:29:56.479Z,95540.56
2022-11-07T03:32:58.470Z,95548.06
2022-11-07T03:36:00.455Z,95551.47
2022-11-07T03:39:02.499Z,95557.09
2022-11-07T03:42:06.127Z,95555.91
2022-11-07T03:45:09.570Z,95558.41
2022-11-07T03:48:11.561Z,95562.38
2022-11-07T03:51:13.598Z,95563.97
2022-11-07T03:54:15.596Z,95560.97
2022-11-07T03:57:18.895Z,95568.59
2022-11-07T04:00:20.860Z,95567.47
2022-11-07T04:03:22.744Z,95570.22
2022-11-07T04:06:24.739Z,95573.66
2022-11-07T04:09:26.777Z,95575.59
2022-11-07T04:12:30.093Z,95572.91
2022-11-07T04:15:32.223Z,95575.97
2022-11-07T04:18:34.217Z,95584.34
2022-11-07T04:21:36.107Z,95588.59
2022-11-07T04:24:42.904Z,95590.53
2022-11-07T04:27:48.619Z,95595.13
2022-11-07T04:30:50.600Z,95598.50
2022-11-07T04:33:52.774Z,95604.94
2022-11-07T04:36:54.708Z,95610.84
2022-11-07T04:39:56.672Z,95605.25
2022-11-07T04:43:00.010Z,95609.00
2022-11-07T04:46:01.968Z,95604.25
2022-11-07T04:49:03.882Z,95600.56
2022-11-07T04:52:05.808Z,95610.91
2022-11-07T04:55:09.938Z,95604.84
2022-11-07T04:58:13.221Z,95602.81
2022-11-07T05:01:15.171Z,95604.50
2022-11-07T05:04:17.402Z,95610.34
2022-11-07T05:07:20.134Z,95605.72
2022-11-07T05:10:24.011Z,95605.03
2022-11-07T05:13:27.351Z,95606.22
2022-11-07T05:16:32.227Z,95616.75
2022-11-07T05:19:34.213Z,95607.97
2022-11-07T05:22:36.170Z,95607.81
2022-11-07T05:25:38.250Z,95609.75
2022-11-07T05:28:41.577Z,95613.56
2022-11-07T05:31:43.600Z,95615.13
2022-11-07T05:34:45.553Z,95623.94
2022-11-07T05:37:47.486Z,95628.38
2022-11-07T05:40:49.553Z,95621.63
2022-11-07T05:43:52.875Z,95629.63
2022-11-07T05:46:56.196Z,95628.81
2022-11-07T05:49:58.403Z,95629.81
2022-11-07T05:53:00.613Z,95626.75
2022-11-07T05:56:02.643Z,95627.66
2022-11-07T05:59:05.956Z,95635.00
2022-11-07T06:02:08.441Z,95627.44
2022-11-07T06:05:10.526Z,95644.16
2022-11-07T06:08:13.970Z,95654.69
2022-11-07T06:11:15.949Z,95655.81
2022-11-07T06:14:19.457Z,95662.84
2022-11-07T06:17:21.768Z,95676.16
2022-11-07T06:20:23.742Z,95680.00
2022-11-07T06:23:25.694Z,95684.31
2022-11-07T06:26:27.614Z,95667.22
2022-11-07T06:29:31.087Z,95674.28
2022-11-07T06:32:33.035Z,95679.28
2022-11-07T06:35:35.320Z,95679.41
2022-11-07T06:38:38.553Z,95690.50
2022-11-07T06:41:40.472Z,95678.34
2022-11-07T06:44:44.037Z,95687.75
2022-11-07T06:47:45.962Z,95685.75
2022-11-07T06:50:47.879Z,95696.78
2022-11-07T06:53:49.852Z,95699.19
2022-11-07T06:56:51.726Z,95701.19
2022-11-07T06:59:55.338Z,95705.38
2022-11-07T07:02:58.998Z,95711.75
2022-11-07T07:06:01.765Z,95704.88
2022-11-07T07:09:04.475Z,95708.50
2022-11-07T07:12:06.913Z,95711.97
2022-11-07T07:15:10.763Z,95718.22
2022-11-07T07:18:12.641Z,95715.56
2022-11-07T07:21:14.870Z,95724.50
2022-11-07T07:24:16.940Z,95721.72
2022-11-07T07:27:18.859Z,95724.88
2022-11-07T07:30:22.327Z,95725.28
2022-11-07T07:33:24.440Z,95718.06
2022-11-07T07:36:26.546Z,95720.78
2022-11-07T07:39:28.605Z,95721.50
2022-11-07T07:42:30.636Z,95721.84
2022-11-07T07:45:34.212Z,95730.72
2022-11-07T07:48:36.336Z,95734.59
2022-11-07T07:51:38.243Z,95729.94
2022-11-07T07:54:40.202Z,95733.78
2022-11-07T07:57:42.702Z,95739.69
2022-11-07T08:00:46.071Z,95739.72
2022-11-07T08:04:03.241Z,95738.16
2022-11-07T08:07:05.342Z,95738.66
2022-11-07T08:10:34.958Z,95736.34
2022-11-07T08:13:30.707Z,95735.56
2022-11-07T08:16:34.084Z,95737.91
2022-11-07T08:19:36.017Z,95744.13
2022-11-07T08:22:38.467Z,95745.69
2022-11-07T08:25:40.403Z,95745.03
2022-11-07T08:28:42.321Z,95748.16
2022-11-07T08:31:45.696Z,95742.75
2022-11-07T08:34:47.815Z,95737.72
2022-11-07T08:37:52.095Z,95737.81
2022-11-07T08:40:54.315Z,95736.66
2022-11-07T08:43:56.261Z,95746.19
2022-11-07T08:47:02.155Z,95748.88
2022-11-07T08:50:08.330Z,95744.28
2022-11-07T08:53:10.850Z,95748.88
2022-11-07T08:56:12.781Z,95748.19
2022-11-07T08:59:15.364Z,95742.78
2022-11-07T09:05:41.024Z,95740.91
2022-11-07T09:08:43.163Z,95740.19
2022-11-07T09:11:45.162Z,95742.50
2022-11-07T09:14:47.090Z,95738.63
2022-11-07T09:17:50.755Z,95747.84
2022-11-07T09:20:52.927Z,95742.91
2022-11-07T09:23:54.913Z,95744.47
2022-11-07T09:26:56.858Z,95747.63
2022-11-07T09:29:58.902Z,95740.66
2022-11-07T09:33:02.248Z,95744.88
2022-11-07T09:36:05.570Z,95747.25
2022-11-07T09:39:07.557Z,95748.06
2022-11-07T09:42:18.531Z,95745.28
2022-11-07T09:45:20.533Z,95749.53
2022-11-07T09:48:28.609Z,95746.91
2022-11-07T09:51:36.970Z,95739.63
2022-11-07T09:54:46.931Z,95748.88
2022-11-07T09:57:50.350Z,95741.97
2022-11-07T10:00:54.248Z,95734.66
2022-11-07T10:04:23.618Z,95736.56
2022-11-07T10:07:30.824Z,95730.44
2022-11-07T10:10:41.616Z,95724.22
2022-11-07T10:14:06.993Z,95722.28
2022-11-07T10:17:17.801Z,95715.31
2022-11-07T10:20:34.476Z,95723.84
2022-11-07T10:23:53.173Z,95726.16
2022-11-07T10:26:57.008Z,95720.75
2022-11-07T10:30:01.422Z,95721.13
2022-11-07T10:33:13.906Z,95728.88
2022-11-07T10:36:23.633Z,95712.25
2022-11-07T10:39:25.734Z,95712.25
2022-11-07T10:42:31.101Z,95713.41
2022-11-07T10:45:33.377Z,95711.50
2022-11-07T10:48:35.360Z,95708.75
2022-11-07T10:51:40.335Z,95701.38
2022-11-07T10:54:42.363Z,95703.38
2022-11-07T10:57:47.863Z,95698.66
2022-11-07T11:01:04.838Z,95702.88
2022-11-07T11:04:06.910Z,95694.00
2022-11-07T11:07:12.120Z,95693.25
2022-11-07T11:10:19.215Z,95680.84
2022-11-07T11:13:26.262Z,95694.75
2022-11-07T11:16:30.051Z,95684.25
2022-11-07T11:19:48.387Z,95682.25
2022-11-07T11:22:53.170Z,95690.41
2022-11-07T11:26:00.241Z,95683.78
2022-11-07T11:29:05.612Z,95678.72
2022-11-07T11:32:16.961Z,95674.41
2022-11-07T11:35:30.663Z,95679.78
2022-11-07T11:38:36.340Z,95669.28
2022-11-07T11:41:49.938Z,95669.69
2022-11-07T11:44:55.501Z,95664.22
2022-11-07T11:48:02.532Z,95667.69
2022-11-07T11:51:07.354Z,95656.03
2022-11-07T11:54:14.311Z,95664.53
2022-11-07T11:57:21.855Z,95652.94
2022-11-07T12:00:24.784Z,95648.63
2022-11-07T12:03:40.816Z,95652.94
2022-11-07T12:06:45.726Z,95657.59
2022-11-07T12:09:54.981Z,95651.28
2022-11-07T12:13:02.776Z,95660.63
2022-11-07T12:16:13.108Z,95656.25
2022-11-07T12:19:23.299Z,95646.13
2022-11-07T12:22:40.378Z,95644.13
2022-11-07T12:25:48.786Z,95642.13
2022-11-07T12:29:00.523Z,95649.53
2022-11-07T12:32:12.777Z,95646.81
2022-11-07T12:35:31.563Z,95642.16
2022-11-07T12:38:57.709Z,95629.31
2022-11-07T12:42:07.581Z,95628.94
2022-11-07T12:45:19.169Z,95631.63
2022-11-07T12:48:55.930Z,95633.47
2022-11-07T12:52:04.265Z,95633.91
2022-11-07T12:55:19.556Z,95625.19
2022-11-07T12:58:27.871Z,95625.91
2022-11-07T13:01:38.978Z,95624.75
2022-11-07T13:04:47.507Z,95624.75
2022-11-07T13:07:58.811Z,95623.94
2022-11-07T13:11:07.583Z,95626.66
2022-11-07T13:14:26.575Z,95627.03
2022-11-07T13:17:39.563Z,95617.03
2022-11-07T13:20:41.519Z,95618.97
2022-11-07T13:23:43.552Z,95619.69
2022-11-07T13:26:47.274Z,95610.44
2022-11-07T13:29:51.495Z,95609.25
2022-11-07T13:32:53.514Z,95614.13
2022-11-07T13:35:58.658Z,95615.19
2022-11-07T13:39:04.909Z,95618.03
2022-11-07T13:42:07.076Z,95619.03
2022-11-07T13:45:24.676Z,95615.91
2022-11-07T13:48:34.700Z,95609.38
2022-11-07T13:51:42.301Z,95612.97
2022-11-07T13:54:49.795Z,95605.28
2022-11-07T13:57:55.743Z,95612.69
2022-11-07T14:01:08.645Z,95611.13
2022-11-07T14:04:16.140Z,95617.13
2022-11-07T14:07:20.262Z,95613.59
2022-11-07T14:10:29.554Z,95618.28
2022-11-07T14:13:38.318Z,95622.59
2022-11-07T14:16:49.426Z,95623.63
2022-11-07T14:19:51.491Z,95615.56
2022-11-07T14:22:55.556Z,95625.25
2022-11-07T14:25:59.083Z,95623.25
2022-11-07T14:29:02.203Z,95615.94
2022-11-07T14:32:07.047Z,95624.75
2022-11-07T14:35:09.345Z,95628.66
2022-11-07T14:38:15.374Z,95631.41
2022-11-07T14:41:18.778Z,95628.34
2022-11-07T14:44:28.379Z,95623.31
2022-11-07T14:47:39.961Z,95630.75
2022-11-07T14:50:44.506Z,95631.59
2022-11-07T14:53:53.595Z,95633.31
2022-11-07T14:56:56.202Z,95635.72
2022-11-07T14:59:58.608Z,95633.47
2022-11-07T15:03:02.308Z,95625.41
2022-11-07T15:06:04.600Z,95631.66
2022-11-07T15:09:08.670Z,95621.22
2022-11-07T15:12:16.380Z,95623.63
2022-11-07T15:15:20.343Z,95622.81
2022-11-07T15:18:26.548Z,95621.28
2022-11-07T15:21:30.893Z,95624.03
2022-11-07T15:24:36.253Z,95624.81
2022-11-07T15:27:38.229Z,95629.81
2022-11-07T15:30:40.333Z,95627.88
2022-11-07T15:33:43.653Z,95637.94
2022-11-07T15:36:45.842Z,95632.53
2022-11-07T15:39:48.490Z,95623.63
2022-11-07T15:42:50.497Z,95632.13
2022-11-07T15:45:53.699Z,95617.44
2022-11-07T15:48:57.543Z,95620.13
2022-11-07T15:52:00.069Z,95616.28
2022-11-07T15:55:02.266Z,95619.38
2022-11-07T15:58:04.458Z,95624.41
2022-11-07T16:01:07.079Z,95616.97
2022-11-07T16:04:10.965Z,95622.66
2022-11-07T16:07:17.561Z,95625.25
2022-11-07T16:10:22.411Z,95622.44
2022-11-07T16:13:24.463Z,95627.66
2022-11-07T16:16:32.154Z,95624.06
2022-11-07T16:19:35.759Z,95618.59
2022-11-07T16:22:37.814Z,95623.63
2022-11-07T16:25:42.526Z,95622.03
2022-11-07T16:28:44.583Z,95622.03
2022-11-07T16:31:46.964Z,95623.75
2022-11-07T16:34:50.544Z,95630.06
2022-11-07T16:37:52.898Z,95636.56
2022-11-07T16:40:54.871Z,95635.16
2022-11-07T16:43:56.884Z,95631.59
2022-11-07T16:46:59.704Z,95625.34
2022-11-07T16:50:04.305Z,95626.97
2022-11-07T16:53:10.258Z,95629.66
2022-11-07T16:56:22.220Z,95629.84
2022-11-07T16:59:25.017Z,95636.72
2022-11-07T17:02:27.154Z,95639.00
2022-11-07T17:05:31.452Z,95640.41
2022-11-07T17:08:38.517Z,95646.56
2022-11-07T17:11:42.151Z,95647.47
2022-11-07T17:14:45.189Z,95643.09
2022-11-07T17:17:47.941Z,95636.81
2022-11-07T17:20:53.598Z,95644.78
2022-11-07T17:23:58.621Z,95641.91
2022-11-07T17:27:02.188Z,95641.50
2022-11-07T17:30:08.645Z,95653.34
2022-11-07T17:33:11.717Z,95651.16
2022-11-07T17:36:29.768Z,95654.56
2022-11-07T17:39:35.857Z,95654.78
2022-11-07T17:42:39.247Z,95658.28
2022-11-07T17:45:46.778Z,95666.97
2022-11-07T17:48:50.129Z,95658.16
2022-11-07T17:51:55.659Z,95659.19
2022-11-07T17:54:58.057Z,95656.50
2022-11-07T17:58:00.748Z,95654.53
2022-11-07T18:01:04.118Z,95658.28
2022-11-07T18:04:08.205Z,95657.94
2022-11-07T18:07:11.930Z,95662.28
2022-11-07T18:10:17.067Z,95667.66
2022-11-07T18:13:19.835Z,95660.69
2022-11-07T18:16:26.221Z,95672.53
2022-11-07T18:19:30.388Z,95668.34
2022-11-07T18:22:36.724Z,95669.53
2022-11-07T18:25:39.871Z,95668.34
2022-11-07T18:28:42.268Z,95662.06
2022-11-07T18:31:46.650Z,95671.56
2022-11-07T18:34:50.259Z,95668.25
2022-11-07T18:37:56.570Z,95671.91
2022-11-07T18:41:02.061Z,95673.28
2022-11-07T18:44:05.439Z,95671.47
2022-11-07T18:47:10.065Z,95675.72
2022-11-07T18:50:16.027Z,95673.03
2022-11-07T18:53:20.321Z,95675.00
2022-11-07T18:56:23.367Z,95671.53
2022-11-07T18:59:26.878Z,95668.44
2022-11-07T19:02:30.010Z,95666.13
2022-11-07T19:05:34.175Z,95669.75
2022-11-07T19:08:42.537Z,95673.03
2022-11-07T19:11:45.488Z,95682.88
2022-11-07T19:14:48.162Z,95684.03
2022-11-07T19:17:50.840Z,95677.66
2022-11-07T19:20:54.213Z,95673.88
2022-11-07T19:23:59.737Z,95680.66
2022-11-07T19:27:02.896Z,95687.91
2022-11-07T19:30:06.980Z,95678.50
2022-11-07T19:33:10.688Z,95676.75
2022-11-07T19:36:16.340Z,95674.69
2022-11-07T19:39:20.257Z,95683.44
2022-11-07T19:42:23.962Z,95686.34
2022-11-07T19:45:26.695Z,95684.59
2022-11-07T19:48:29.703Z,95681.28
2022-11-07T19:51:35.463Z,95681.25
2022-11-07T19:54:40.585Z,95680.78
2022-11-07T19:57:43.701Z,95686.19
2022-11-07T20:00:47.364Z,95685.44
2022-11-07T20:03:52.441Z,95681.50
2022-11-07T20:06:55.442Z,95676.38
2022-11-07T20:10:01.416Z,95679.53
2022-11-07T20:13:04.497Z,95680.38
2022-11-07T20:16:07.759Z,95678.38
2022-11-07T20:19:10.473Z,95673.59
2022-11-07T20:22:13.236Z,95680.56
2022-11-07T20:25:18.269Z,95677.19
2022-11-07T20:28:21.755Z,95682.38
2022-11-07T20:31:26.352Z,95686.13
2022-11-07T20:34:29.015Z,95685.81
2022-11-07T20:37:31.817Z,95684.53
2022-11-07T20:40:37.469Z,95676.03
2022-11-07T20:43:42.105Z,95694.19
2022-11-07T20:46:45.861Z,95699.56
2022-11-07T20:49:49.503Z,95686.75
2022-11-07T20:52:57.530Z,95701.00
2022-11-07T20:56:05.080Z,95686.72
2022-11-07T20:59:08.594Z,95700.66
2022-11-07T21:02:13.787Z,95691.22
2022-11-07T21:05:18.351Z,95688.19
2022-11-07T21:08:21.545Z,95688.03
2022-11-07T21:11:25.808Z,95684.50
2022-11-07T21:14:27.985Z,95684.75
2022-11-07T21:17:29.963Z,95685.16
2022-11-07T21:20:32.082Z,95689.44
2022-11-07T21:23:35.018Z,95692.25
2022-11-07T21:26:39.114Z,95688.19
2022-11-07T21:29:42.543Z,95693.47
2022-11-07T21:32:44.803Z,95700.56
2022-11-07T21:35:47.072Z,95692.09
2022-11-07T21:38:49.201Z,95688.31
2022-11-07T21:41:52.607Z,95686.28
2022-11-07T21:44:54.980Z,95691.47
2022-11-07T21:47:57.110Z,95688.50
2022-11-07T21:50:59.037Z,95683.75
2022-11-07T21:54:03.451Z,95692.53
2022-11-07T21:57:07.069Z,95684.41
2022-11-07T22:00:10.821Z,95685.28
2022-11-07T22:03:12.789Z,95680.00
2022-11-07T22:06:14.733Z,95677.69
2022-11-07T22:09:18.224Z,95682.06
2022-11-07T22:12:21.597Z,95681.84
2022-11-07T22:15:23.484Z,95686.25
2022-11-07T22:18:25.397Z,95684.69
2022-11-07T22:21:27.639Z,95685.53
2022-11-07T22:24:29.564Z,95677.97
2022-11-07T22:27:32.946Z,95678.88
2022-11-07T22:30:34.873Z,95681.66
2022-11-07T22:33:37.357Z,95683.78
2022-11-07T22:36:39.287Z,95675.75
2022-11-07T22:39:41.236Z,95680.59
2022-11-07T22:42:44.545Z,95683.34
2022-11-07T22:45:46.557Z,95672.44
2022-11-07T22:48:49.274Z,95672.13
2022-11-07T22:51:51.293Z,95671.06
2022-11-07T22:54:54.614Z,95668.28
2022-11-07T22:57:57.907Z,95668.13
2022-11-07T23:00:59.882Z,95662.34
2022-11-07T23:04:02.111Z,95662.25
2022-11-07T23:07:04.487Z,95665.16
2022-11-07T23:10:06.961Z,95672.78
2022-11-07T23:13:10.276Z,95669.91
2022-11-07T23:16:20.564Z,95669.56
2022-11-07T23:19:24.781Z,95674.97
2022-11-07T23:22:31.225Z,95670.03
2022-11-07T23:25:35.377Z,95672.72
2022-11-07T23:28:39.579Z,95661.16
2022-11-07T23:31:43.834Z,95670.19
2022-11-07T23:34:46.217Z,95669.38
2022-11-07T23:37:48.863Z,95666.09
2022-11-07T23:40:50.952Z,95660.34
2022-11-07T23:43:54.279Z,95656.44
2022-11-07T23:46:56.892Z,95652.56
2022-11-07T23:49:58.846Z,95656.19
2022-11-07T23:53:00.914Z,95656.38
2022-11-07T23:56:05.749Z,95653.75
2022-11-07T23:59:10.106Z,95654.13
